createdAt,value
2023-03-10T00:00:44.515Z, 42.78
2023-03-10T00:01:44.508Z, 42.75
2023-03-10T00:02:44.503Z, 42.66
2023-03-10T00:03:44.609Z, 42.63
2023-03-10T00:04:44.647Z, 42.60
2023-03-10T00:05:44.650Z, 42.61
2023-03-10T00:06:44.577Z, 42.54
2023-03-10T00:07:44.611Z, 42.52
2023-03-10T00:08:44.585Z, 42.49
2023-03-10T00:09:44.662Z, 42.50
2023-03-10T00:10:44.598Z, 42.39
2023-03-10T00:11:44.640Z, 42.40
2023-03-10T00:12:44.645Z, 42.36
2023-03-10T00:13:44.663Z, 42.32
2023-03-10T00:14:44.677Z, 42.25
2023-03-10T00:15:44.783Z, 42.22
2023-03-10T00:16:44.687Z, 42.26
2023-03-10T00:17:44.657Z, 42.19
2023-03-10T00:18:44.670Z, 42.11
2023-03-10T00:19:44.666Z, 42.16
2023-03-10T00:20:44.714Z, 42.12
2023-03-10T00:21:44.745Z, 42.10
2023-03-10T00:22:44.722Z, 42.04
2023-03-10T00:23:44.730Z, 42.04
2023-03-10T00:24:44.731Z, 41.99
2023-03-10T00:25:44.728Z, 41.95
2023-03-10T00:26:44.732Z, 41.95
2023-03-10T00:27:44.817Z, 41.91
2023-03-10T00:28:44.788Z, 41.88
2023-03-10T00:29:44.808Z, 41.85
2023-03-10T00:30:44.927Z, 41.89
2023-03-10T00:31:44.912Z, 41.84
2023-03-10T00:32:44.953Z, 41.72
2023-03-10T00:33:44.874Z, 41.76
2023-03-10T00:34:44.889Z, 41.75
2023-03-10T00:35:44.933Z, 41.75
2023-03-10T00:36:44.864Z, 41.66
2023-03-10T00:37:44.858Z, 41.68
2023-03-10T00:38:44.849Z, 41.62
2023-03-10T00:39:44.859Z, 41.51
2023-03-10T00:40:44.868Z, 41.52
2023-03-10T00:41:44.908Z, 41.52
2023-03-10T00:42:44.896Z, 41.55
2023-03-10T00:43:44.908Z, 41.50
2023-03-10T00:44:44.986Z, 41.44
2023-03-10T00:45:44.953Z, 41.45
2023-03-10T00:46:45.041Z, 41.42
2023-03-10T00:47:45.011Z, 41.41
2023-03-10T00:48:45.014Z, 41.41
2023-03-10T00:49:45.037Z, 41.36
2023-03-10T00:50:45.046Z, 41.33
2023-03-10T00:51:45.041Z, 41.27
2023-03-10T00:52:45.038Z, 41.19
2023-03-10T00:53:45.059Z, 41.22
2023-03-10T00:54:45.029Z, 41.24
2023-03-10T00:55:45.041Z, 41.18
2023-03-10T00:56:45.041Z, 41.16
2023-03-10T00:57:45.041Z, 41.04
2023-03-10T00:58:45.105Z, 41.02
2023-03-10T00:59:50.296Z, 41.05
2023-03-10T01:00:45.099Z, 41.05
2023-03-10T01:01:45.138Z, 41.04
2023-03-10T01:02:45.104Z, 41.03
2023-03-10T01:03:45.103Z, 41.02
2023-03-10T01:04:45.266Z, 40.97
2023-03-10T01:05:45.188Z, 40.90
2023-03-10T01:06:45.206Z, 40.85
2023-03-10T01:07:45.196Z, 40.80
2023-03-10T01:08:45.156Z, 40.79
2023-03-10T01:09:45.165Z, 40.76
2023-03-10T01:10:45.173Z, 40.72
2023-03-10T01:11:45.246Z, 40.74
2023-03-10T01:12:45.196Z, 40.73
2023-03-10T01:13:45.194Z, 40.69
2023-03-10T01:14:45.216Z, 40.59
2023-03-10T01:15:45.301Z, 40.57
2023-03-10T01:16:45.256Z, 40.54
2023-03-10T01:17:45.297Z, 40.52
2023-03-10T01:18:45.300Z, 40.58
2023-03-10T01:19:45.326Z, 40.54
2023-03-10T01:20:45.351Z, 40.53
2023-03-10T01:21:45.332Z, 40.39
2023-03-10T01:22:45.311Z, 40.38
2023-03-10T01:23:45.354Z, 40.32
2023-03-10T01:24:45.393Z, 40.28
2023-03-10T01:25:45.368Z, 40.26
2023-03-10T01:26:45.410Z, 40.28
2023-03-10T01:27:45.422Z, 40.23
2023-03-10T01:28:45.419Z, 40.27
2023-03-10T01:29:45.444Z, 40.18
2023-03-10T01:30:45.420Z, 40.12
2023-03-10T01:31:45.554Z, 40.12
2023-03-10T01:32:45.524Z, 40.12
2023-03-10T01:33:45.456Z, 40.14
2023-03-10T01:34:45.457Z, 40.11
2023-03-10T01:35:45.495Z, 40.08
2023-03-10T01:36:45.505Z, 40.08
2023-03-10T01:37:45.535Z, 39.97
2023-03-10T01:38:45.516Z, 40.04
2023-03-10T01:39:45.509Z, 40.09
2023-03-10T01:40:45.523Z, 40.04
2023-03-10T01:41:45.586Z, 40.01
2023-03-10T01:42:45.561Z, 39.98
2023-03-10T01:43:45.562Z, 39.93
2023-03-10T01:44:45.592Z, 39.87
2023-03-10T01:45:45.542Z, 39.86
2023-03-10T01:46:45.655Z, 39.85
2023-03-10T01:47:45.630Z, 39.82
2023-03-10T01:48:45.625Z, 39.79
2023-03-10T01:49:45.610Z, 39.75
2023-03-10T01:50:45.605Z, 39.77
2023-03-10T01:51:45.607Z, 39.80
2023-03-10T01:52:45.628Z, 39.82
2023-03-10T01:53:45.613Z, 39.77
2023-03-10T01:54:45.629Z, 39.67
2023-03-10T01:55:45.649Z, 39.63
2023-03-10T01:56:45.667Z, 39.68
2023-03-10T01:57:45.724Z, 39.61
2023-03-10T01:58:45.702Z, 39.62
2023-03-10T01:59:45.743Z, 39.52
2023-03-10T02:00:45.799Z, 39.52
2023-03-10T02:01:45.755Z, 39.51
2023-03-10T02:02:45.756Z, 39.47
2023-03-10T02:03:45.789Z, 39.45
2023-03-10T02:04:45.785Z, 39.41
2023-03-10T02:05:45.780Z, 39.45
2023-03-10T02:06:45.790Z, 39.42
2023-03-10T02:07:45.773Z, 39.42
2023-03-10T02:08:45.776Z, 39.33
2023-03-10T02:09:45.781Z, 39.30
2023-03-10T02:10:45.811Z, 39.32
2023-03-10T02:11:45.803Z, 39.28
2023-03-10T02:12:45.845Z, 39.24
2023-03-10T02:13:45.902Z, 39.19
2023-03-10T02:14:45.913Z, 39.14
2023-03-10T02:15:45.886Z, 39.12
2023-03-10T02:16:46.093Z, 39.07
2023-03-10T02:17:46.021Z, 39.11
2023-03-10T02:18:45.941Z, 39.10
2023-03-10T02:19:45.890Z, 39.07
2023-03-10T02:20:45.886Z, 39.03
2023-03-10T02:21:45.969Z, 39.03
2023-03-10T02:22:45.935Z, 39.04
2023-03-10T02:23:58.751Z, 39.03
2023-03-10T02:24:46.001Z, 38.99
2023-03-10T02:25:45.978Z, 39.02
2023-03-10T02:26:45.985Z, 38.98
2023-03-10T02:27:46.033Z, 38.98
2023-03-10T02:28:46.002Z, 38.87
2023-03-10T02:29:58.339Z, 38.83
2023-03-10T02:30:46.223Z, 38.82
2023-03-10T02:31:46.153Z, 38.81
2023-03-10T02:32:46.163Z, 38.82
2023-03-10T02:33:46.095Z, 38.84
2023-03-10T02:34:46.053Z, 38.83
2023-03-10T02:35:46.148Z, 38.80
2023-03-10T02:36:46.081Z, 38.72
2023-03-10T02:37:46.082Z, 38.73
2023-03-10T02:38:46.135Z, 38.77
2023-03-10T02:39:46.117Z, 38.77
2023-03-10T02:40:46.132Z, 38.77
2023-03-10T02:41:46.168Z, 38.68
2023-03-10T02:42:46.121Z, 38.61
2023-03-10T02:43:46.178Z, 38.62
2023-03-10T02:44:46.158Z, 38.63
2023-03-10T02:45:46.326Z, 38.63
2023-03-10T02:46:46.239Z, 38.55
2023-03-10T02:47:46.222Z, 38.56
2023-03-10T02:48:46.238Z, 38.54
2023-03-10T02:49:46.251Z, 38.50
2023-03-10T02:50:46.211Z, 38.49
2023-03-10T02:51:46.251Z, 38.47
2023-03-10T02:52:46.279Z, 38.42
2023-03-10T02:53:46.260Z, 38.36
2023-03-10T02:54:46.248Z, 38.40
2023-03-10T02:55:46.293Z, 38.37
2023-03-10T02:56:46.277Z, 38.32
2023-03-10T02:57:46.288Z, 38.30
2023-03-10T02:58:46.284Z, 38.31
2023-03-10T02:59:46.280Z, 38.30
2023-03-10T03:00:46.445Z, 38.26
2023-03-10T03:01:46.367Z, 38.25
2023-03-10T03:02:46.336Z, 38.31
2023-03-10T03:03:46.442Z, 38.26
2023-03-10T03:04:46.372Z, 38.21
2023-03-10T03:05:46.355Z, 38.16
2023-03-10T03:06:46.420Z, 38.17
2023-03-10T03:07:46.405Z, 38.13
2023-03-10T03:08:46.420Z, 38.09
2023-03-10T03:09:46.407Z, 38.10
2023-03-10T03:10:46.392Z, 38.00
2023-03-10T03:11:46.584Z, 37.99
2023-03-10T03:12:46.406Z, 37.97
2023-03-10T03:13:46.482Z, 37.91
2023-03-10T03:14:46.507Z, 37.92
2023-03-10T03:15:46.488Z, 37.89
2023-03-10T03:16:46.537Z, 37.93
2023-03-10T03:17:46.478Z, 37.95
2023-03-10T03:18:46.490Z, 37.91
2023-03-10T03:19:46.480Z, 37.87
2023-03-10T03:20:46.478Z, 37.84
2023-03-10T03:21:46.492Z, 37.89
2023-03-10T03:22:46.573Z, 37.89
2023-03-10T03:23:46.523Z, 37.88
2023-03-10T03:24:46.579Z, 37.87
2023-03-10T03:25:46.547Z, 37.83
2023-03-10T03:26:46.552Z, 37.80
2023-03-10T03:27:46.544Z, 37.72
2023-03-10T03:28:46.661Z, 37.72
2023-03-10T03:29:46.587Z, 37.69
2023-03-10T03:30:46.690Z, 37.69
2023-03-10T03:31:46.687Z, 37.72
2023-03-10T03:32:46.732Z, 37.75
2023-03-10T03:33:46.631Z, 37.73
2023-03-10T03:34:46.626Z, 37.64
2023-03-10T03:35:46.841Z, 37.59
2023-03-10T03:36:46.688Z, 37.64
2023-03-10T03:37:46.690Z, 37.64
2023-03-10T03:38:46.676Z, 37.57
2023-03-10T03:39:46.831Z, 37.53
2023-03-10T03:40:46.704Z, 37.51
2023-03-10T03:41:46.750Z, 37.50
2023-03-10T03:42:46.755Z, 37.48
2023-03-10T03:43:46.735Z, 37.49
2023-03-10T03:44:46.758Z, 37.43
2023-03-10T03:45:46.810Z, 37.43
2023-03-10T03:46:46.826Z, 37.39
2023-03-10T03:47:46.798Z, 37.43
2023-03-10T03:48:46.811Z, 37.38
2023-03-10T03:49:46.793Z, 37.35
2023-03-10T03:50:46.794Z, 37.39
2023-03-10T03:51:46.800Z, 37.42
2023-03-10T03:52:46.858Z, 37.26
2023-03-10T03:53:46.853Z, 37.27
2023-03-10T03:54:46.838Z, 37.29
2023-03-10T03:55:46.839Z, 37.28
2023-03-10T03:56:46.844Z, 37.28
2023-03-10T03:57:46.859Z, 37.20
2023-03-10T03:58:46.897Z, 37.15
2023-03-10T03:59:46.936Z, 37.24
2023-03-10T04:00:46.971Z, 37.13
2023-03-10T04:01:46.964Z, 37.15
2023-03-10T04:02:47.081Z, 37.14
2023-03-10T04:03:47.081Z, 37.11
2023-03-10T04:04:47.023Z, 37.08
2023-03-10T04:05:46.970Z, 37.05
2023-03-10T04:06:46.974Z, 37.00
2023-03-10T04:07:46.960Z, 36.99
2023-03-10T04:08:46.960Z, 36.95
2023-03-10T04:09:47.031Z, 37.00
2023-03-10T04:10:47.034Z, 37.00
2023-03-10T04:11:47.055Z, 36.98
2023-03-10T04:12:47.081Z, 36.88
2023-03-10T04:13:47.055Z, 36.93
2023-03-10T04:14:47.038Z, 36.90
2023-03-10T04:15:47.166Z, 36.87
2023-03-10T04:16:47.092Z, 36.88
2023-03-10T04:17:47.064Z, 36.89
2023-03-10T04:18:47.157Z, 36.86
2023-03-10T04:19:54.149Z, 36.84
2023-03-10T04:20:47.118Z, 36.83
2023-03-10T04:21:47.123Z, 36.84
2023-03-10T04:22:47.114Z, 36.81
2023-03-10T04:23:47.156Z, 36.81
2023-03-10T04:24:47.184Z, 36.77
2023-03-10T04:25:47.170Z, 36.74
2023-03-10T04:26:47.196Z, 36.72
2023-03-10T04:27:47.182Z, 36.74
2023-03-10T04:28:47.172Z, 36.70
2023-03-10T04:29:47.207Z, 36.68
2023-03-10T04:30:47.278Z, 36.67
2023-03-10T04:32:02.685Z, 37.62
2023-03-10T04:32:49.154Z, 38.65
2023-03-10T04:33:47.273Z, 38.83
2023-03-10T04:34:47.315Z, 38.83
2023-03-10T04:35:47.378Z, 38.81
2023-03-10T04:36:47.317Z, 38.75
2023-03-10T04:37:47.281Z, 38.66
2023-03-10T04:38:47.283Z, 38.49
2023-03-10T04:39:47.278Z, 38.01
2023-03-10T04:40:47.282Z, 37.02
2023-03-10T04:41:47.303Z, 36.04
2023-03-10T04:42:47.298Z, 35.24
2023-03-10T04:43:48.094Z, 34.55
2023-03-10T04:44:47.388Z, 35.87
2023-03-10T04:45:47.451Z, 41.85
2023-03-10T04:46:47.403Z, 47.23
2023-03-10T04:47:47.381Z, 46.83
2023-03-10T04:48:47.400Z, 44.96
2023-03-10T04:49:47.379Z, 43.17
2023-03-10T04:50:47.431Z, 41.60
2023-03-10T04:51:47.447Z, 40.20
2023-03-10T04:52:47.460Z, 38.93
2023-03-10T04:53:47.439Z, 37.76
2023-03-10T04:54:47.438Z, 36.55
2023-03-10T04:55:47.433Z, 35.18
2023-03-10T04:56:47.442Z, 33.95
2023-03-10T04:57:47.429Z, 33.11
2023-03-10T04:58:47.527Z, 32.67
2023-03-10T04:59:47.577Z, 32.38
2023-03-10T05:00:56.626Z, 32.12
2023-03-10T05:01:47.563Z, 33.83
2023-03-10T05:02:47.551Z, 39.73
2023-03-10T05:03:47.516Z, 44.83
2023-03-10T05:04:47.592Z, 47.69
2023-03-10T05:05:47.509Z, 46.98
2023-03-10T05:06:47.531Z, 45.77
2023-03-10T05:07:47.546Z, 44.83
2023-03-10T05:08:47.538Z, 43.81
2023-03-10T05:09:47.547Z, 42.85
2023-03-10T05:10:47.588Z, 41.98
2023-03-10T05:11:47.595Z, 41.16
2023-03-10T05:12:47.578Z, 40.44
2023-03-10T05:13:47.595Z, 39.70
2023-03-10T05:14:47.652Z, 39.60
2023-03-10T05:15:47.660Z, 42.12
2023-03-10T05:16:47.637Z, 45.59
2023-03-10T05:17:49.957Z, 48.46
2023-03-10T05:18:47.652Z, 51.93
2023-03-10T05:19:47.632Z, 55.78
2023-03-10T05:20:47.704Z, 59.68
2023-03-10T05:21:47.746Z, 68.58
2023-03-10T05:22:47.700Z, 53.42
2023-03-10T05:23:47.679Z, 52.11
2023-03-10T05:24:47.767Z, 53.55
2023-03-10T05:25:47.730Z, 54.71
2023-03-10T05:26:47.739Z, 57.16
2023-03-10T05:27:47.748Z, 60.26
2023-03-10T05:28:47.803Z, 67.64
2023-03-10T05:29:47.792Z, 53.78
2023-03-10T05:30:47.773Z, 53.23
2023-03-10T05:31:47.916Z, 54.45
2023-03-10T05:32:47.869Z, 56.03
2023-03-10T05:33:47.784Z, 58.74
2023-03-10T05:34:47.775Z, 61.15
2023-03-10T05:35:47.898Z, 62.90
2023-03-10T05:36:47.835Z, 63.27
2023-03-10T05:37:47.826Z, 64.13
2023-03-10T05:38:47.826Z, 62.70
2023-03-10T05:39:47.822Z, 60.64
2023-03-10T05:40:47.817Z, 58.86
2023-03-10T05:41:47.831Z, 57.71
2023-03-10T05:42:47.856Z, 56.91
2023-03-10T05:43:47.844Z, 56.02
2023-03-10T05:44:47.844Z, 54.97
2023-03-10T05:45:47.907Z, 54.06
2023-03-10T05:46:47.979Z, 53.14
2023-03-10T05:47:47.880Z, 52.36
2023-03-10T05:48:47.911Z, 51.65
2023-03-10T05:49:47.936Z, 50.98
2023-03-10T05:50:47.982Z, 50.31
2023-03-10T05:51:48.000Z, 49.67
2023-03-10T05:52:47.978Z, 49.02
2023-03-10T05:53:47.970Z, 48.39
2023-03-10T05:54:47.959Z, 47.79
2023-03-10T05:55:47.958Z, 47.29
2023-03-10T05:56:47.969Z, 46.80
2023-03-10T05:57:47.985Z, 46.27
2023-03-10T05:58:48.040Z, 45.74
2023-03-10T05:59:48.086Z, 45.27
2023-03-10T06:00:48.040Z, 44.84
2023-03-10T06:01:48.032Z, 44.40
2023-03-10T06:02:48.101Z, 43.95
2023-03-10T06:03:48.272Z, 43.55
2023-03-10T06:04:48.040Z, 43.14
2023-03-10T06:05:48.090Z, 42.66
2023-03-10T06:06:48.132Z, 42.24
2023-03-10T06:07:48.112Z, 41.86
2023-03-10T06:08:48.124Z, 41.57
2023-03-10T06:09:48.123Z, 41.24
2023-03-10T06:10:48.107Z, 40.93
2023-03-10T06:11:48.108Z, 40.62
2023-03-10T06:12:48.110Z, 40.35
2023-03-10T06:13:48.174Z, 40.09
2023-03-10T06:14:48.190Z, 39.81
2023-03-10T06:15:48.179Z, 39.61
2023-03-10T06:16:48.285Z, 39.63
2023-03-10T06:17:48.178Z, 39.58
2023-03-10T06:18:48.159Z, 39.49
2023-03-10T06:19:48.168Z, 39.32
2023-03-10T06:20:48.172Z, 39.12
2023-03-10T06:21:48.185Z, 38.93
2023-03-10T06:22:48.185Z, 38.81
2023-03-10T06:23:48.261Z, 38.69
2023-03-10T06:24:48.264Z, 38.55
2023-03-10T06:25:48.306Z, 38.46
2023-03-10T06:26:48.285Z, 38.30
2023-03-10T06:27:48.288Z, 38.15
2023-03-10T06:28:48.279Z, 38.04
2023-03-10T06:29:48.346Z, 37.93
2023-03-10T06:30:48.283Z, 37.87
2023-03-10T06:31:48.403Z, 37.79
2023-03-10T06:32:48.430Z, 37.74
2023-03-10T06:33:48.376Z, 37.66
2023-03-10T06:34:48.357Z, 37.56
2023-03-10T06:35:48.437Z, 37.50
2023-03-10T06:36:48.400Z, 37.44
2023-03-10T06:37:48.427Z, 37.39
2023-03-10T06:38:48.378Z, 37.29
2023-03-10T06:39:48.408Z, 37.22
2023-03-10T06:40:48.394Z, 37.15
2023-03-10T06:41:48.398Z, 37.08
2023-03-10T06:42:48.405Z, 37.04
2023-03-10T06:43:48.480Z, 36.97
2023-03-10T06:44:49.314Z, 36.88
2023-03-10T06:45:48.559Z, 36.82
2023-03-10T06:46:48.495Z, 36.75
2023-03-10T06:47:48.521Z, 36.70
2023-03-10T06:48:48.491Z, 36.65
2023-03-10T06:49:48.488Z, 36.61
2023-03-10T06:50:48.515Z, 36.56
2023-03-10T06:51:48.491Z, 36.55
2023-03-10T06:52:48.493Z, 36.46
2023-03-10T06:53:48.500Z, 36.41
2023-03-10T06:54:48.496Z, 36.39
2023-03-10T06:55:48.522Z, 36.31
2023-03-10T06:56:48.535Z, 36.27
2023-03-10T06:57:48.555Z, 36.21
2023-03-10T06:58:48.582Z, 36.19
2023-03-10T06:59:48.577Z, 36.13
2023-03-10T07:00:48.645Z, 36.07
2023-03-10T07:01:48.620Z, 36.04
2023-03-10T07:02:48.628Z, 35.99
2023-03-10T07:03:48.663Z, 35.94
2023-03-10T07:04:48.724Z, 35.92
2023-03-10T07:05:48.728Z, 35.85
2023-03-10T07:06:48.740Z, 35.86
2023-03-10T07:07:48.727Z, 35.85
2023-03-10T07:08:48.731Z, 35.80
2023-03-10T07:09:48.696Z, 35.78
2023-03-10T07:10:50.614Z, 35.74
2023-03-10T07:11:48.708Z, 35.69
2023-03-10T07:12:48.700Z, 35.66
2023-03-10T07:13:48.711Z, 35.66
2023-03-10T07:14:48.707Z, 35.60
2023-03-10T07:15:48.713Z, 35.54
2023-03-10T07:16:48.806Z, 35.53
2023-03-10T07:17:48.745Z, 35.52
2023-03-10T07:18:48.741Z, 35.49
2023-03-10T07:19:48.808Z, 35.46
2023-03-10T07:20:48.828Z, 35.46
2023-03-10T07:21:48.905Z, 35.45
2023-03-10T07:22:48.977Z, 35.46
2023-03-10T07:23:48.937Z, 35.41
2023-03-10T07:24:48.937Z, 35.37
2023-03-10T07:25:48.929Z, 35.33
2023-03-10T07:26:48.925Z, 35.33
2023-03-10T07:27:48.989Z, 35.27
2023-03-10T07:28:48.986Z, 35.23
2023-03-10T07:29:49.043Z, 35.22
2023-03-10T07:30:49.024Z, 35.20
2023-03-10T07:31:49.039Z, 35.16
2023-03-10T07:32:49.018Z, 35.14
2023-03-10T07:33:48.979Z, 35.16
2023-03-10T07:34:48.995Z, 35.13
2023-03-10T07:35:49.039Z, 35.11
2023-03-10T07:36:49.080Z, 35.09
2023-03-10T07:37:49.090Z, 35.04
2023-03-10T07:38:49.137Z, 35.02
2023-03-10T07:39:49.115Z, 35.03
2023-03-10T07:40:49.112Z, 35.02
2023-03-10T07:41:49.162Z, 35.00
2023-03-10T07:42:49.126Z, 34.97
2023-03-10T07:43:49.127Z, 34.89
2023-03-10T07:44:49.190Z, 34.84
2023-03-10T07:45:49.190Z, 34.89
2023-03-10T07:46:49.173Z, 34.89
2023-03-10T07:47:49.180Z, 34.84
2023-03-10T07:48:49.180Z, 34.79
2023-03-10T07:49:49.162Z, 34.74
2023-03-10T07:50:49.198Z, 34.74
2023-03-10T07:51:49.178Z, 34.69
2023-03-10T07:52:49.248Z, 34.65
2023-03-10T07:53:49.214Z, 34.66
2023-03-10T07:54:49.208Z, 34.64
2023-03-10T07:55:49.245Z, 34.62
2023-03-10T07:56:51.109Z, 34.63
2023-03-10T07:57:49.248Z, 34.67
2023-03-10T07:58:49.274Z, 34.58
2023-03-10T07:59:49.266Z, 34.57
2023-03-10T08:00:49.282Z, 34.58
2023-03-10T08:01:49.310Z, 34.55
2023-03-10T08:02:49.358Z, 34.52
2023-03-10T08:03:49.406Z, 34.49
2023-03-10T08:04:49.408Z, 34.48
2023-03-10T08:05:49.330Z, 34.45
2023-03-10T08:06:49.343Z, 34.43
2023-03-10T08:07:49.316Z, 34.41
2023-03-10T08:08:49.334Z, 34.40
2023-03-10T08:09:49.316Z, 34.36
2023-03-10T08:10:49.377Z, 34.34
2023-03-10T08:11:49.392Z, 34.34
2023-03-10T08:12:49.374Z, 34.31
2023-03-10T08:13:49.459Z, 34.29
2023-03-10T08:14:49.376Z, 34.28
2023-03-10T08:15:49.456Z, 34.23
2023-03-10T08:16:49.373Z, 34.24
2023-03-10T08:17:49.374Z, 34.25
2023-03-10T08:18:49.369Z, 34.22
2023-03-10T08:19:49.381Z, 34.17
2023-03-10T08:20:49.385Z, 34.15
2023-03-10T08:21:49.436Z, 34.13
2023-03-10T08:22:49.431Z, 34.13
2023-03-10T08:23:49.443Z, 34.13
2023-03-10T08:24:49.429Z, 34.12
2023-03-10T08:25:49.429Z, 34.10
2023-03-10T08:26:49.422Z, 34.01
2023-03-10T08:27:49.443Z, 34.03
2023-03-10T08:28:49.455Z, 34.03
2023-03-10T08:29:49.445Z, 33.97
2023-03-10T08:31:03.760Z, 33.96
2023-03-10T08:31:49.520Z, 33.98
2023-03-10T08:32:49.530Z, 33.98
2023-03-10T08:33:49.542Z, 34.00
2023-03-10T08:34:49.499Z, 33.96
2023-03-10T08:35:49.530Z, 33.95
2023-03-10T08:36:49.557Z, 33.94
2023-03-10T08:37:49.595Z, 33.93
2023-03-10T08:38:49.599Z, 33.95
2023-03-10T08:39:49.578Z, 33.95
2023-03-10T08:40:49.580Z, 33.94
2023-03-10T08:41:49.610Z, 33.88
2023-03-10T08:42:49.582Z, 33.87
2023-03-10T08:43:49.633Z, 33.86
2023-03-10T08:44:49.604Z, 33.84
2023-03-10T08:45:49.623Z, 33.84
2023-03-10T08:46:49.696Z, 33.81
2023-03-10T08:47:49.650Z, 33.79
2023-03-10T08:48:49.653Z, 33.81
2023-03-10T08:49:49.657Z, 33.78
2023-03-10T08:50:49.659Z, 33.80
2023-03-10T08:51:49.691Z, 33.76
2023-03-10T08:52:49.684Z, 33.73
2023-03-10T08:53:49.683Z, 33.71
2023-03-10T08:54:49.711Z, 33.72
2023-03-10T08:55:49.702Z, 33.74
2023-03-10T08:56:49.720Z, 33.69
2023-03-10T08:57:49.755Z, 33.65
2023-03-10T08:58:49.742Z, 33.63
2023-03-10T08:59:49.750Z, 33.59
2023-03-10T09:00:49.784Z, 33.62
2023-03-10T09:01:49.833Z, 33.58
2023-03-10T09:02:49.842Z, 33.58
2023-03-10T09:03:49.805Z, 33.58
2023-03-10T09:04:49.806Z, 33.54
2023-03-10T09:05:49.819Z, 33.52
2023-03-10T09:06:49.821Z, 33.49
2023-03-10T09:07:49.841Z, 33.51
2023-03-10T09:08:49.862Z, 33.44
2023-03-10T09:09:49.880Z, 33.43
2023-03-10T09:10:49.881Z, 33.45
2023-03-10T09:11:49.896Z, 33.39
2023-03-10T09:12:51.362Z, 33.41
2023-03-10T09:13:49.917Z, 33.39
2023-03-10T09:14:49.912Z, 33.42
2023-03-10T09:15:49.977Z, 33.41
2023-03-10T09:16:50.054Z, 33.40
2023-03-10T09:17:50.011Z, 33.39
2023-03-10T09:18:50.049Z, 33.40
2023-03-10T09:19:50.024Z, 33.40
2023-03-10T09:20:50.064Z, 33.32
2023-03-10T09:21:50.032Z, 33.29
2023-03-10T09:22:50.034Z, 33.28
2023-03-10T09:23:50.011Z, 33.25
2023-03-10T09:24:50.006Z, 33.22
2023-03-10T09:25:50.073Z, 33.16
2023-03-10T09:26:50.064Z, 33.19
2023-03-10T09:27:50.057Z, 33.21
2023-03-10T09:28:50.108Z, 33.21
2023-03-10T09:29:50.140Z, 33.19
2023-03-10T09:30:50.102Z, 33.17
2023-03-10T09:31:50.200Z, 33.13
2023-03-10T09:32:50.194Z, 33.10
2023-03-10T09:33:50.118Z, 33.11
2023-03-10T09:34:50.125Z, 33.11
2023-03-10T09:36:05.361Z, 33.09
2023-03-10T09:36:50.125Z, 33.09
2023-03-10T09:37:50.121Z, 33.06
2023-03-10T09:38:50.137Z, 33.01
2023-03-10T09:39:50.134Z, 32.96
2023-03-10T09:40:50.150Z, 33.01
2023-03-10T09:41:50.171Z, 33.06
2023-03-10T09:42:50.168Z, 33.03
2023-03-10T09:43:50.182Z, 32.98
2023-03-10T09:44:50.204Z, 32.96
2023-03-10T09:45:50.245Z, 32.98
2023-03-10T09:46:50.199Z, 32.98
2023-03-10T09:47:50.208Z, 32.98
2023-03-10T09:48:50.259Z, 32.96
2023-03-10T09:49:51.585Z, 32.95
2023-03-10T09:50:50.339Z, 32.94
2023-03-10T09:51:50.331Z, 32.91
2023-03-10T09:52:50.330Z, 32.88
2023-03-10T09:53:50.378Z, 32.85
2023-03-10T09:54:50.345Z, 32.86
2023-03-10T09:55:50.369Z, 32.85
2023-03-10T09:56:50.355Z, 32.85
2023-03-10T09:57:50.348Z, 32.83
2023-03-10T09:58:50.440Z, 32.80
2023-03-10T09:59:50.429Z, 32.77
2023-03-10T10:00:50.394Z, 32.77
2023-03-10T10:01:50.446Z, 32.76
2023-03-10T10:02:50.482Z, 32.76
2023-03-10T10:03:53.383Z, 32.73
2023-03-10T10:04:50.504Z, 32.74
2023-03-10T10:05:50.471Z, 32.72
2023-03-10T10:06:50.494Z, 32.71
2023-03-10T10:07:50.478Z, 32.68
2023-03-10T10:09:01.910Z, 32.66
2023-03-10T10:09:50.513Z, 32.65
2023-03-10T10:10:50.497Z, 32.65
2023-03-10T10:11:50.535Z, 32.61
2023-03-10T10:12:50.503Z, 32.62
2023-03-10T10:13:50.545Z, 32.61
2023-03-10T10:14:57.237Z, 32.59
2023-03-10T10:15:52.706Z, 32.59
2023-03-10T10:16:50.599Z, 32.56
2023-03-10T10:17:56.841Z, 32.54
2023-03-10T10:18:50.592Z, 32.53
2023-03-10T10:19:50.556Z, 32.48
2023-03-10T10:20:50.628Z, 32.45
2023-03-10T10:21:50.600Z, 32.46
2023-03-10T10:22:50.651Z, 32.46
2023-03-10T10:23:50.625Z, 32.45
2023-03-10T10:24:52.771Z, 32.49
2023-03-10T10:25:50.643Z, 32.46
2023-03-10T10:26:50.633Z, 32.47
2023-03-10T10:27:50.629Z, 32.46
2023-03-10T10:28:51.003Z, 32.44
2023-03-10T10:29:50.722Z, 32.42
2023-03-10T10:30:50.811Z, 32.38
2023-03-10T10:31:50.778Z, 32.34
2023-03-10T10:32:50.784Z, 32.35
2023-03-10T10:33:50.740Z, 32.32
2023-03-10T10:34:50.741Z, 32.33
2023-03-10T10:35:50.861Z, 32.34
2023-03-10T10:36:50.768Z, 32.30
2023-03-10T10:37:50.740Z, 32.28
2023-03-10T10:38:50.747Z, 32.30
2023-03-10T10:39:50.838Z, 32.32
2023-03-10T10:40:50.844Z, 32.25
2023-03-10T10:41:50.814Z, 32.22
2023-03-10T10:42:50.834Z, 32.22
2023-03-10T10:43:50.848Z, 32.20
2023-03-10T10:44:50.845Z, 32.21
2023-03-10T10:45:50.880Z, 32.17
2023-03-10T10:46:50.878Z, 32.20
2023-03-10T10:47:50.887Z, 32.24
2023-03-10T10:48:50.861Z, 32.19
2023-03-10T10:49:50.877Z, 32.20
2023-03-10T10:50:50.876Z, 32.21
2023-03-10T10:51:50.880Z, 32.17
2023-03-10T10:52:50.872Z, 32.16
2023-03-10T10:53:50.884Z, 32.16
2023-03-10T10:54:50.897Z, 32.13
2023-03-10T10:55:50.910Z, 32.11
2023-03-10T10:56:50.915Z, 32.12
2023-03-10T10:57:50.927Z, 32.12
2023-03-10T10:58:50.958Z, 32.07
2023-03-10T10:59:50.973Z, 32.03
2023-03-10T11:00:51.111Z, 32.01
2023-03-10T11:01:50.973Z, 33.00
2023-03-10T11:02:51.025Z, 33.70
2023-03-10T11:03:51.018Z, 33.88
2023-03-10T11:04:51.026Z, 33.96
2023-03-10T11:05:51.040Z, 33.92
2023-03-10T11:06:51.030Z, 33.80
2023-03-10T11:07:51.052Z, 33.63
2023-03-10T11:08:51.438Z, 33.37
2023-03-10T11:09:51.085Z, 33.17
2023-03-10T11:10:51.096Z, 33.00
2023-03-10T11:11:51.066Z, 32.82
2023-03-10T11:12:51.061Z, 32.78
2023-03-10T11:13:51.131Z, 37.56
2023-03-10T11:14:51.111Z, 43.93
2023-03-10T11:15:51.164Z, 45.79
2023-03-10T11:16:51.105Z, 43.84
2023-03-10T11:17:51.160Z, 42.04
2023-03-10T11:18:51.633Z, 40.56
2023-03-10T11:19:51.172Z, 39.14
2023-03-10T11:20:51.206Z, 37.83
2023-03-10T11:21:51.171Z, 36.80
2023-03-10T11:22:51.199Z, 35.74
2023-03-10T11:23:51.230Z, 34.55
2023-03-10T11:24:51.208Z, 33.41
2023-03-10T11:25:51.226Z, 32.62
2023-03-10T11:26:51.263Z, 32.16
2023-03-10T11:27:51.257Z, 31.81
2023-03-10T11:28:51.252Z, 31.55
2023-03-10T11:29:51.314Z, 31.28
2023-03-10T11:30:51.276Z, 31.01
2023-03-10T11:31:51.247Z, 32.90
2023-03-10T11:32:51.280Z, 36.30
2023-03-10T11:33:51.248Z, 38.11
2023-03-10T11:34:51.262Z, 38.68
2023-03-10T11:35:51.353Z, 38.78
2023-03-10T11:36:56.417Z, 38.75
2023-03-10T11:37:51.286Z, 38.66
2023-03-10T11:38:51.313Z, 38.51
2023-03-10T11:39:51.342Z, 38.38
2023-03-10T11:40:51.515Z, 38.26
2023-03-10T11:41:51.370Z, 38.12
2023-03-10T11:42:51.347Z, 37.96
2023-03-10T11:43:51.360Z, 37.80
2023-03-10T11:44:51.365Z, 37.64
2023-03-10T11:45:51.397Z, 37.53
2023-03-10T11:46:51.395Z, 37.39
2023-03-10T11:47:51.439Z, 37.27
2023-03-10T11:48:51.450Z, 37.16
2023-03-10T11:49:51.448Z, 37.04
2023-03-10T11:50:51.449Z, 36.92
2023-03-10T11:51:51.473Z, 36.81
2023-03-10T11:52:51.442Z, 36.70
2023-03-10T11:53:51.474Z, 36.60
2023-03-10T11:54:51.539Z, 36.49
2023-03-10T11:55:51.522Z, 36.34
2023-03-10T11:56:51.528Z, 36.24
2023-03-10T11:57:51.541Z, 36.15
2023-03-10T11:58:51.572Z, 36.07
2023-03-10T11:59:51.555Z, 35.99
2023-03-10T12:00:51.567Z, 35.90
2023-03-10T12:01:51.558Z, 35.79
2023-03-10T12:02:51.572Z, 35.71
2023-03-10T12:03:51.680Z, 35.58
2023-03-10T12:04:51.621Z, 35.48
2023-03-10T12:05:51.830Z, 35.40
2023-03-10T12:06:51.631Z, 35.36
2023-03-10T12:07:51.624Z, 35.29
2023-03-10T12:08:51.638Z, 35.18
2023-03-10T12:09:51.631Z, 35.13
2023-03-10T12:10:51.717Z, 35.06
2023-03-10T12:11:51.719Z, 34.99
2023-03-10T12:12:51.682Z, 34.88
2023-03-10T12:13:51.701Z, 34.79
2023-03-10T12:14:51.710Z, 34.71
2023-03-10T12:15:51.713Z, 34.65
2023-03-10T12:16:51.732Z, 34.59
2023-03-10T12:17:51.802Z, 34.50
2023-03-10T12:18:51.759Z, 34.43
2023-03-10T12:19:51.748Z, 34.36
2023-03-10T12:20:51.798Z, 34.30
2023-03-10T12:21:51.778Z, 34.20
2023-03-10T12:22:51.803Z, 34.12
2023-03-10T12:23:51.824Z, 34.05
2023-03-10T12:24:51.797Z, 33.99
2023-03-10T12:25:51.782Z, 33.90
2023-03-10T12:26:51.866Z, 33.82
2023-03-10T12:27:51.820Z, 33.81
2023-03-10T12:28:51.828Z, 33.74